sensor_id;sensor_type;location;lat;lon;timestamp;temperature;humidity
18703;DHT22;9481;48.796;9.210;2023-02-15T00:00:16;10.00;43.10
18703;DHT22;9481;48.796;9.210;2023-02-15T00:02:42;10.00;43.20
18703;DHT22;9481;48.796;9.210;2023-02-15T00:05:08;10.00;43.30
18703;DHT22;9481;48.796;9.210;2023-02-15T00:07:34;9.90;44.10
18703;DHT22;9481;48.796;9.210;2023-02-15T00:10:00;9.90;44.20
18703;DHT22;9481;48.796;9.210;2023-02-15T00:12:25;9.90;44.10
18703;DHT22;9481;48.796;9.210;2023-02-15T00:14:51;9.90;44.10
18703;DHT22;9481;48.796;9.210;2023-02-15T00:17:17;9.90;44.10
18703;DHT22;9481;48.796;9.210;2023-02-15T00:19:42;9.90;44.20
18703;DHT22;9481;48.796;9.210;2023-02-15T00:22:08;9.90;44.20
18703;DHT22;9481;48.796;9.210;2023-02-15T00:24:34;9.90;44.10
18703;DHT22;9481;48.796;9.210;2023-02-15T00:27:00;9.90;44.10
18703;DHT22;9481;48.796;9.210;2023-02-15T00:29:26;9.80;44.10
18703;DHT22;9481;48.796;9.210;2023-02-15T00:31:52;9.80;44.10
18703;DHT22;9481;48.796;9.210;2023-02-15T00:34:21;9.80;44.10
18703;DHT22;9481;48.796;9.210;2023-02-15T00:36:49;9.80;44.20
18703;DHT22;9481;48.796;9.210;2023-02-15T00:39:16;9.80;44.20
18703;DHT22;9481;48.796;9.210;2023-02-15T00:41:43;9.80;44.30
18703;DHT22;9481;48.796;9.210;2023-02-15T00:44:09;9.80;44.30
18703;DHT22;9481;48.796;9.210;2023-02-15T00:46:35;9.70;44.20
18703;DHT22;9481;48.796;9.210;2023-02-15T00:49:02;9.70;44.20
18703;DHT22;9481;48.796;9.210;2023-02-15T00:51:29;9.70;44.20
18703;DHT22;9481;48.796;9.210;2023-02-15T00:53:55;9.70;44.30
18703;DHT22;9481;48.796;9.210;2023-02-15T00:56:21;9.70;44.30
18703;DHT22;9481;48.796;9.210;2023-02-15T00:58:47;9.60;44.20
18703;DHT22;9481;48.796;9.210;2023-02-15T01:01:18;9.60;44.30
18703;DHT22;9481;48.796;9.210;2023-02-15T01:03:45;9.60;44.30
18703;DHT22;9481;48.796;9.210;2023-02-15T01:06:12;9.60;44.40
18703;DHT22;9481;48.796;9.210;2023-02-15T01:08:39;9.50;44.40
18703;DHT22;9481;48.796;9.210;2023-02-15T01:11:06;9.50;44.40
18703;DHT22;9481;48.796;9.210;2023-02-15T01:13:35;9.50;44.40
18703;DHT22;9481;48.796;9.210;2023-02-15T01:16:02;9.50;44.40
18703;DHT22;9481;48.796;9.210;2023-02-15T01:18:29;9.50;45.20
18703;DHT22;9481;48.796;9.210;2023-02-15T01:20:55;9.50;44.50
18703;DHT22;9481;48.796;9.210;2023-02-15T01:23:21;9.40;44.50
18703;DHT22;9481;48.796;9.210;2023-02-15T01:25:47;9.40;44.70
18703;DHT22;9481;48.796;9.210;2023-02-15T01:28:13;9.40;44.60
18703;DHT22;9481;48.796;9.210;2023-02-15T01:30:39;9.40;44.50
18703;DHT22;9481;48.796;9.210;2023-02-15T01:33:05;9.40;44.60
18703;DHT22;9481;48.796;9.210;2023-02-15T01:35:31;9.40;44.70
18703;DHT22;9481;48.796;9.210;2023-02-15T01:37:57;9.30;44.70
18703;DHT22;9481;48.796;9.210;2023-02-15T01:40:24;9.30;44.70
18703;DHT22;9481;48.796;9.210;2023-02-15T01:42:52;9.30;44.70
18703;DHT22;9481;48.796;9.210;2023-02-15T01:45:31;9.30;44.80
18703;DHT22;9481;48.796;9.210;2023-02-15T01:48:21;9.30;45.00
18703;DHT22;9481;48.796;9.210;2023-02-15T01:50:54;9.30;45.40
18703;DHT22;9481;48.796;9.210;2023-02-15T01:53:37;9.20;44.90
18703;DHT22;9481;48.796;9.210;2023-02-15T01:56:12;9.20;45.10
18703;DHT22;9481;48.796;9.210;2023-02-15T01:58:42;9.20;45.10
18703;DHT22;9481;48.796;9.210;2023-02-15T02:01:09;9.20;45.00
18703;DHT22;9481;48.796;9.210;2023-02-15T02:06:22;9.20;45.40
18703;DHT22;9481;48.796;9.210;2023-02-15T02:08:49;9.20;45.00
18703;DHT22;9481;48.796;9.210;2023-02-15T02:11:15;9.10;45.10
18703;DHT22;9481;48.796;9.210;2023-02-15T02:13:43;9.10;45.10
18703;DHT22;9481;48.796;9.210;2023-02-15T02:19:26;9.10;45.70
18703;DHT22;9481;48.796;9.210;2023-02-15T02:25:51;9.10;45.60
18703;DHT22;9481;48.796;9.210;2023-02-15T02:34:46;9.00;45.70
18703;DHT22;9481;48.796;9.210;2023-02-15T02:40:53;9.00;45.60
18703;DHT22;9481;48.796;9.210;2023-02-15T02:43:29;9.00;45.60
18703;DHT22;9481;48.796;9.210;2023-02-15T02:46:22;9.00;45.40
18703;DHT22;9481;48.796;9.210;2023-02-15T02:48:53;9.00;45.50
18703;DHT22;9481;48.796;9.210;2023-02-15T02:51:20;8.90;45.30
18703;DHT22;9481;48.796;9.210;2023-02-15T02:53:53;8.90;45.40
18703;DHT22;9481;48.796;9.210;2023-02-15T02:56:39;8.90;45.60
18703;DHT22;9481;48.796;9.210;2023-02-15T02:59:18;8.90;45.70
18703;DHT22;9481;48.796;9.210;2023-02-15T03:04:41;8.90;45.70
18703;DHT22;9481;48.796;9.210;2023-02-15T03:07:17;8.90;45.50
18703;DHT22;9481;48.796;9.210;2023-02-15T03:09:51;8.80;45.50
18703;DHT22;9481;48.796;9.210;2023-02-15T03:12:22;8.80;45.60
18703;DHT22;9481;48.796;9.210;2023-02-15T03:14:55;8.80;45.70
18703;DHT22;9481;48.796;9.210;2023-02-15T03:17:28;8.80;45.80
18703;DHT22;9481;48.796;9.210;2023-02-15T03:19:59;8.70;45.50
18703;DHT22;9481;48.796;9.210;2023-02-15T03:22:35;8.70;45.60
18703;DHT22;9481;48.796;9.210;2023-02-15T03:25:13;8.70;45.80
18703;DHT22;9481;48.796;9.210;2023-02-15T03:27:47;8.70;45.70
18703;DHT22;9481;48.796;9.210;2023-02-15T03:30:19;8.70;45.60
18703;DHT22;9481;48.796;9.210;2023-02-15T03:32:47;8.70;45.70
18703;DHT22;9481;48.796;9.210;2023-02-15T03:35:15;8.70;45.70
18703;DHT22;9481;48.796;9.210;2023-02-15T03:37:48;8.70;45.70
18703;DHT22;9481;48.796;9.210;2023-02-15T03:40:26;8.60;45.80
18703;DHT22;9481;48.796;9.210;2023-02-15T03:43:36;8.60;45.80
18703;DHT22;9481;48.796;9.210;2023-02-15T03:46:29;8.60;45.90
18703;DHT22;9481;48.796;9.210;2023-02-15T03:49:34;8.60;45.90
18703;DHT22;9481;48.796;9.210;2023-02-15T03:52:09;8.60;45.70
18703;DHT22;9481;48.796;9.210;2023-02-15T03:54:37;8.60;45.60
18703;DHT22;9481;48.796;9.210;2023-02-15T03:57:14;8.60;45.60
18703;DHT22;9481;48.796;9.210;2023-02-15T04:05:41;8.50;45.70
18703;DHT22;9481;48.796;9.210;2023-02-15T04:08:09;8.50;45.50
18703;DHT22;9481;48.796;9.210;2023-02-15T04:10:35;8.50;45.50
18703;DHT22;9481;48.796;9.210;2023-02-15T04:13:30;8.50;45.60
18703;DHT22;9481;48.796;9.210;2023-02-15T04:15:57;8.40;45.60
18703;DHT22;9481;48.796;9.210;2023-02-15T04:18:30;8.40;45.50
18703;DHT22;9481;48.796;9.210;2023-02-15T04:21:14;8.40;45.50
18703;DHT22;9481;48.796;9.210;2023-02-15T04:23:59;8.30;45.40
18703;DHT22;9481;48.796;9.210;2023-02-15T04:26:43;8.40;45.50
18703;DHT22;9481;48.796;9.210;2023-02-15T04:29:09;8.30;45.40
18703;DHT22;9481;48.796;9.210;2023-02-15T04:31:35;8.30;45.40
18703;DHT22;9481;48.796;9.210;2023-02-15T04:34:00;8.30;45.50
18703;DHT22;9481;48.796;9.210;2023-02-15T04:36:26;8.30;45.60
18703;DHT22;9481;48.796;9.210;2023-02-15T04:38:51;8.30;45.50
18703;DHT22;9481;48.796;9.210;2023-02-15T04:41:17;8.20;45.50
18703;DHT22;9481;48.796;9.210;2023-02-15T04:43:43;8.30;45.50
18703;DHT22;9481;48.796;9.210;2023-02-15T04:46:08;8.20;45.50
18703;DHT22;9481;48.796;9.210;2023-02-15T04:48:34;8.20;45.50
18703;DHT22;9481;48.796;9.210;2023-02-15T04:51:05;8.20;45.60
18703;DHT22;9481;48.796;9.210;2023-02-15T04:53:32;8.20;45.80
18703;DHT22;9481;48.796;9.210;2023-02-15T04:55:58;8.20;45.70
18703;DHT22;9481;48.796;9.210;2023-02-15T04:58:24;8.20;45.80
18703;DHT22;9481;48.796;9.210;2023-02-15T05:00:49;8.10;45.80
18703;DHT22;9481;48.796;9.210;2023-02-15T05:03:15;8.20;45.80
18703;DHT22;9481;48.796;9.210;2023-02-15T05:05:41;8.10;45.70
18703;DHT22;9481;48.796;9.210;2023-02-15T05:08:07;8.10;45.80
18703;DHT22;9481;48.796;9.210;2023-02-15T05:10:32;8.10;45.80
18703;DHT22;9481;48.796;9.210;2023-02-15T05:12:58;8.10;46.60
18703;DHT22;9481;48.796;9.210;2023-02-15T05:15:24;8.10;45.90
18703;DHT22;9481;48.796;9.210;2023-02-15T05:17:49;8.10;46.00
18703;DHT22;9481;48.796;9.210;2023-02-15T05:20:15;8.10;46.00
18703;DHT22;9481;48.796;9.210;2023-02-15T05:22:41;8.10;46.00
18703;DHT22;9481;48.796;9.210;2023-02-15T05:25:08;8.00;46.10
18703;DHT22;9481;48.796;9.210;2023-02-15T05:27:53;8.00;46.10
18703;DHT22;9481;48.796;9.210;2023-02-15T05:30:37;8.00;46.10
18703;DHT22;9481;48.796;9.210;2023-02-15T05:33:08;8.00;46.10
18703;DHT22;9481;48.796;9.210;2023-02-15T05:35:34;8.00;46.00
18703;DHT22;9481;48.796;9.210;2023-02-15T05:38:00;8.00;45.90
18703;DHT22;9481;48.796;9.210;2023-02-15T05:40:26;8.00;45.90
18703;DHT22;9481;48.796;9.210;2023-02-15T05:42:51;7.90;45.80
18703;DHT22;9481;48.796;9.210;2023-02-15T05:45:17;7.90;45.70
18703;DHT22;9481;48.796;9.210;2023-02-15T05:47:43;7.90;45.70
18703;DHT22;9481;48.796;9.210;2023-02-15T05:50:10;7.90;45.70
18703;DHT22;9481;48.796;9.210;2023-02-15T05:52:36;7.80;45.70
18703;DHT22;9481;48.796;9.210;2023-02-15T05:55:03;7.80;45.80
18703;DHT22;9481;48.796;9.210;2023-02-15T05:57:30;7.80;45.90
18703;DHT22;9481;48.796;9.210;2023-02-15T05:59:56;7.80;46.00
18703;DHT22;9481;48.796;9.210;2023-02-15T06:02:22;7.80;46.00
18703;DHT22;9481;48.796;9.210;2023-02-15T06:04:47;7.80;45.90
18703;DHT22;9481;48.796;9.210;2023-02-15T06:07:13;7.80;45.90
18703;DHT22;9481;48.796;9.210;2023-02-15T06:09:39;7.80;46.00
18703;DHT22;9481;48.796;9.210;2023-02-15T06:12:05;7.80;45.90
18703;DHT22;9481;48.796;9.210;2023-02-15T06:14:30;7.80;46.10
18703;DHT22;9481;48.796;9.210;2023-02-15T06:16:56;7.80;46.00
18703;DHT22;9481;48.796;9.210;2023-02-15T06:19:22;7.80;46.10
18703;DHT22;9481;48.796;9.210;2023-02-15T06:21:48;7.80;46.00
18703;DHT22;9481;48.796;9.210;2023-02-15T06:24:14;7.80;45.90
18703;DHT22;9481;48.796;9.210;2023-02-15T06:26:40;7.70;45.90
18703;DHT22;9481;48.796;9.210;2023-02-15T06:29:06;7.80;46.00
18703;DHT22;9481;48.796;9.210;2023-02-15T06:31:32;7.80;46.00
18703;DHT22;9481;48.796;9.210;2023-02-15T06:33:58;7.80;46.00
18703;DHT22;9481;48.796;9.210;2023-02-15T06:36:30;7.80;46.00
18703;DHT22;9481;48.796;9.210;2023-02-15T06:38:56;7.80;46.10
18703;DHT22;9481;48.796;9.210;2023-02-15T06:41:22;7.80;46.00
18703;DHT22;9481;48.796;9.210;2023-02-15T06:43:48;7.80;46.10
18703;DHT22;9481;48.796;9.210;2023-02-15T06:46:14;7.70;46.00
18703;DHT22;9481;48.796;9.210;2023-02-15T06:48:40;7.70;46.00
18703;DHT22;9481;48.796;9.210;2023-02-15T06:51:06;7.80;46.20
18703;DHT22;9481;48.796;9.210;2023-02-15T06:53:31;7.80;46.10
18703;DHT22;9481;48.796;9.210;2023-02-15T06:56:05;7.80;46.10
18703;DHT22;9481;48.796;9.210;2023-02-15T06:58:37;7.80;46.30
18703;DHT22;9481;48.796;9.210;2023-02-15T07:01:04;7.80;46.20
18703;DHT22;9481;48.796;9.210;2023-02-15T07:03:31;7.80;46.30
18703;DHT22;9481;48.796;9.210;2023-02-15T07:05:59;7.80;46.30
18703;DHT22;9481;48.796;9.210;2023-02-15T07:08:27;7.80;46.20
18703;DHT22;9481;48.796;9.210;2023-02-15T07:10:55;7.80;46.30
18703;DHT22;9481;48.796;9.210;2023-02-15T07:13:43;7.80;46.40
18703;DHT22;9481;48.796;9.210;2023-02-15T07:16:09;7.90;46.40
18703;DHT22;9481;48.796;9.210;2023-02-15T07:18:36;7.90;46.50
18703;DHT22;9481;48.796;9.210;2023-02-15T07:21:02;7.90;46.50
18703;DHT22;9481;48.796;9.210;2023-02-15T07:23:28;7.90;46.50
18703;DHT22;9481;48.796;9.210;2023-02-15T07:25:57;7.90;46.70
18703;DHT22;9481;48.796;9.210;2023-02-15T07:28:24;8.00;46.80
18703;DHT22;9481;48.796;9.210;2023-02-15T07:30:50;8.10;46.90
18703;DHT22;9481;48.796;9.210;2023-02-15T07:33:16;8.10;46.90
18703;DHT22;9481;48.796;9.210;2023-02-15T07:35:52;8.20;47.10
18703;DHT22;9481;48.796;9.210;2023-02-15T07:38:24;8.30;47.00
18703;DHT22;9481;48.796;9.210;2023-02-15T07:40:56;8.40;47.00
18703;DHT22;9481;48.796;9.210;2023-02-15T07:43:23;8.50;47.70
18703;DHT22;9481;48.796;9.210;2023-02-15T07:45:48;8.70;46.90
18703;DHT22;9481;48.796;9.210;2023-02-15T07:48:14;8.80;46.80
18703;DHT22;9481;48.796;9.210;2023-02-15T07:50:40;8.90;46.80
18703;DHT22;9481;48.796;9.210;2023-02-15T07:53:05;9.00;46.70
18703;DHT22;9481;48.796;9.210;2023-02-15T07:55:31;9.10;46.70
18703;DHT22;9481;48.796;9.210;2023-02-15T07:57:56;9.30;46.60
18703;DHT22;9481;48.796;9.210;2023-02-15T08:00:23;9.40;46.40
18703;DHT22;9481;48.796;9.210;2023-02-15T08:02:54;9.50;46.30
18703;DHT22;9481;48.796;9.210;2023-02-15T08:05:43;9.60;46.20
18703;DHT22;9481;48.796;9.210;2023-02-15T08:08:11;9.70;46.00
18703;DHT22;9481;48.796;9.210;2023-02-15T08:11:00;9.80;45.90
18703;DHT22;9481;48.796;9.210;2023-02-15T08:13:46;9.90;45.80
18703;DHT22;9481;48.796;9.210;2023-02-15T08:16:30;10.10;44.80
18703;DHT22;9481;48.796;9.210;2023-02-15T08:21:45;10.20;44.40
18703;DHT22;9481;48.796;9.210;2023-02-15T08:24:24;10.40;44.40
18703;DHT22;9481;48.796;9.210;2023-02-15T08:26:52;10.40;44.30
18703;DHT22;9481;48.796;9.210;2023-02-15T08:29:20;10.50;44.10
18703;DHT22;9481;48.796;9.210;2023-02-15T08:31:53;10.60;44.10
18703;DHT22;9481;48.796;9.210;2023-02-15T08:34:21;10.70;44.00
18703;DHT22;9481;48.796;9.210;2023-02-15T08:36:46;10.70;44.00
18703;DHT22;9481;48.796;9.210;2023-02-15T08:39:14;10.80;44.00
18703;DHT22;9481;48.796;9.210;2023-02-15T08:41:45;10.80;44.00
18703;DHT22;9481;48.796;9.210;2023-02-15T08:44:13;10.90;43.90
18703;DHT22;9481;48.796;9.210;2023-02-15T08:46:42;11.00;43.90
18703;DHT22;9481;48.796;9.210;2023-02-15T08:49:12;11.10;43.90
18703;DHT22;9481;48.796;9.210;2023-02-15T08:51:41;11.20;43.90
18703;DHT22;9481;48.796;9.210;2023-02-15T08:54:13;11.30;44.00
18703;DHT22;9481;48.796;9.210;2023-02-15T08:56:42;11.40;44.00
18703;DHT22;9481;48.796;9.210;2023-02-15T08:59:15;11.50;44.00
18703;DHT22;9481;48.796;9.210;2023-02-15T09:01:43;11.60;44.00
18703;DHT22;9481;48.796;9.210;2023-02-15T09:04:09;11.70;44.10
18703;DHT22;9481;48.796;9.210;2023-02-15T09:06:36;11.80;44.00
18703;DHT22;9481;48.796;9.210;2023-02-15T09:09:02;11.90;43.90
18703;DHT22;9481;48.796;9.210;2023-02-15T09:11:30;12.10;44.10
18703;DHT22;9481;48.796;9.210;2023-02-15T09:14:01;12.20;43.80
18703;DHT22;9481;48.796;9.210;2023-02-15T09:16:31;12.30;43.50
18703;DHT22;9481;48.796;9.210;2023-02-15T09:18:58;12.50;43.10
18703;DHT22;9481;48.796;9.210;2023-02-15T09:21:27;12.60;43.10
18703;DHT22;9481;48.796;9.210;2023-02-15T09:23:59;12.70;43.10
18703;DHT22;9481;48.796;9.210;2023-02-15T09:26:29;12.80;43.10
18703;DHT22;9481;48.796;9.210;2023-02-15T09:28:57;13.00;43.10
18703;DHT22;9481;48.796;9.210;2023-02-15T09:31:52;13.10;43.10
18703;DHT22;9481;48.796;9.210;2023-02-15T09:34:20;13.20;42.30
18703;DHT22;9481;48.796;9.210;2023-02-15T09:36:48;13.40;42.80
18703;DHT22;9481;48.796;9.210;2023-02-15T09:39:20;13.50;42.80
18703;DHT22;9481;48.796;9.210;2023-02-15T09:42:02;13.60;42.60
18703;DHT22;9481;48.796;9.210;2023-02-15T09:56:19;14.40;42.20
18703;DHT22;9481;48.796;9.210;2023-02-15T09:59:16;14.50;42.00
18703;DHT22;9481;48.796;9.210;2023-02-15T10:02:00;14.60;41.30
18703;DHT22;9481;48.796;9.210;2023-02-15T10:04:49;14.70;41.60
18703;DHT22;9481;48.796;9.210;2023-02-15T10:07:53;14.80;41.30
18703;DHT22;9481;48.796;9.210;2023-02-15T10:10:45;15.00;41.00
18703;DHT22;9481;48.796;9.210;2023-02-15T10:13:31;15.10;40.90
18703;DHT22;9481;48.796;9.210;2023-02-15T10:16:31;15.20;41.20
18703;DHT22;9481;48.796;9.210;2023-02-15T10:19:49;15.30;40.80
18703;DHT22;9481;48.796;9.210;2023-02-15T10:25:45;15.50;40.70
18703;DHT22;9481;48.796;9.210;2023-02-15T10:28:23;15.60;40.40
18703;DHT22;9481;48.796;9.210;2023-02-15T10:31:07;15.80;40.70
18703;DHT22;9481;48.796;9.210;2023-02-15T10:40:18;16.30;39.50
18703;DHT22;9481;48.796;9.210;2023-02-15T10:51:44;17.00;38.60
18703;DHT22;9481;48.796;9.210;2023-02-15T10:54:37;17.20;38.70
18703;DHT22;9481;48.796;9.210;2023-02-15T11:00:23;17.60;38.90
18703;DHT22;9481;48.796;9.210;2023-02-15T11:03:31;17.80;38.10
18703;DHT22;9481;48.796;9.210;2023-02-15T11:06:11;18.10;38.00
18703;DHT22;9481;48.796;9.210;2023-02-15T11:08:46;18.30;37.50
18703;DHT22;9481;48.796;9.210;2023-02-15T11:11:26;18.50;37.80
18703;DHT22;9481;48.796;9.210;2023-02-15T11:14:50;18.80;37.70
18703;DHT22;9481;48.796;9.210;2023-02-15T11:16:56;19.00;36.90
18703;DHT22;9481;48.796;9.210;2023-02-15T11:19:37;19.30;37.20
18703;DHT22;9481;48.796;9.210;2023-02-15T11:22:09;19.60;37.00
18703;DHT22;9481;48.796;9.210;2023-02-15T11:24:42;19.80;36.30
18703;DHT22;9481;48.796;9.210;2023-02-15T11:27:21;20.10;35.60
18703;DHT22;9481;48.796;9.210;2023-02-15T11:30:20;20.30;35.10
18703;DHT22;9481;48.796;9.210;2023-02-15T11:32:51;20.60;35.10
18703;DHT22;9481;48.796;9.210;2023-02-15T11:35:31;20.80;35.80
18703;DHT22;9481;48.796;9.210;2023-02-15T11:38:12;21.10;34.50
18703;DHT22;9481;48.796;9.210;2023-02-15T11:40:58;21.40;34.60
18703;DHT22;9481;48.796;9.210;2023-02-15T11:43:39;21.80;35.00
18703;DHT22;9481;48.796;9.210;2023-02-15T11:46:13;22.30;34.80
18703;DHT22;9481;48.796;9.210;2023-02-15T11:48:40;22.80;35.50
18703;DHT22;9481;48.796;9.210;2023-02-15T11:51:19;23.30;34.60
18703;DHT22;9481;48.796;9.210;2023-02-15T11:53:47;23.80;32.70
18703;DHT22;9481;48.796;9.210;2023-02-15T11:56:20;24.30;33.70
18703;DHT22;9481;48.796;9.210;2023-02-15T12:01:38;25.20;32.20
18703;DHT22;9481;48.796;9.210;2023-02-15T12:04:22;25.70;31.80
18703;DHT22;9481;48.796;9.210;2023-02-15T12:06:57;26.20;30.10
18703;DHT22;9481;48.796;9.210;2023-02-15T12:09:48;26.70;30.40
18703;DHT22;9481;48.796;9.210;2023-02-15T12:12:25;27.10;29.10
18703;DHT22;9481;48.796;9.210;2023-02-15T12:14:57;27.50;29.00
18703;DHT22;9481;48.796;9.210;2023-02-15T12:17:31;27.70;28.80
18703;DHT22;9481;48.796;9.210;2023-02-15T12:22:46;28.10;27.00
18703;DHT22;9481;48.796;9.210;2023-02-15T12:28:02;28.20;26.20
18703;DHT22;9481;48.796;9.210;2023-02-15T12:30:30;28.20;27.00
18703;DHT22;9481;48.796;9.210;2023-02-15T12:33:18;28.30;27.00
18703;DHT22;9481;48.796;9.210;2023-02-15T12:36:18;28.40;25.80
18703;DHT22;9481;48.796;9.210;2023-02-15T12:41:33;29.00;25.90
18703;DHT22;9481;48.796;9.210;2023-02-15T12:44:26;29.30;26.60
18703;DHT22;9481;48.796;9.210;2023-02-15T12:50:24;30.10;24.90
18703;DHT22;9481;48.796;9.210;2023-02-15T12:53:18;30.50;24.00
18703;DHT22;9481;48.796;9.210;2023-02-15T12:55:57;30.80;24.40
18703;DHT22;9481;48.796;9.210;2023-02-15T12:58:27;31.20;23.80
18703;DHT22;9481;48.796;9.210;2023-02-15T13:01:14;31.50;24.10
18703;DHT22;9481;48.796;9.210;2023-02-15T13:04:05;31.80;22.60
18703;DHT22;9481;48.796;9.210;2023-02-15T13:06:49;32.10;22.20
18703;DHT22;9481;48.796;9.210;2023-02-15T13:12:16;32.70;22.30
18703;DHT22;9481;48.796;9.210;2023-02-15T13:14:47;32.80;21.20
18703;DHT22;9481;48.796;9.210;2023-02-15T13:17:18;33.00;22.20
18703;DHT22;9481;48.796;9.210;2023-02-15T13:19:56;33.10;21.70
18703;DHT22;9481;48.796;9.210;2023-02-15T13:22:40;33.30;21.60
18703;DHT22;9481;48.796;9.210;2023-02-15T13:25:22;33.40;20.80
18703;DHT22;9481;48.796;9.210;2023-02-15T13:27:55;33.60;20.20
18703;DHT22;9481;48.796;9.210;2023-02-15T13:30:30;33.80;21.00
18703;DHT22;9481;48.796;9.210;2023-02-15T13:33:16;34.00;19.60
18703;DHT22;9481;48.796;9.210;2023-02-15T13:35:50;34.10;19.20
18703;DHT22;9481;48.796;9.210;2023-02-15T13:41:38;34.20;19.00
18703;DHT22;9481;48.796;9.210;2023-02-15T13:53:49;34.60;18.90
18703;DHT22;9481;48.796;9.210;2023-02-15T13:56:25;34.80;17.60
18703;DHT22;9481;48.796;9.210;2023-02-15T14:08:19;35.10;17.90
18703;DHT22;9481;48.796;9.210;2023-02-15T14:21:46;35.10;17.40
18703;DHT22;9481;48.796;9.210;2023-02-15T14:30:22;34.70;17.40
18703;DHT22;9481;48.796;9.210;2023-02-15T14:32:54;34.50;17.30
18703;DHT22;9481;48.796;9.210;2023-02-15T14:35:29;34.00;17.40
18703;DHT22;9481;48.796;9.210;2023-02-15T14:40:42;32.50;17.20
18703;DHT22;9481;48.796;9.210;2023-02-15T14:43:52;31.50;17.50
18703;DHT22;9481;48.796;9.210;2023-02-15T14:49:27;29.20;18.50
18703;DHT22;9481;48.796;9.210;2023-02-15T14:51:59;28.10;19.10
18703;DHT22;9481;48.796;9.210;2023-02-15T14:59:46;25.70;21.00
18703;DHT22;9481;48.796;9.210;2023-02-15T15:02:29;25.00;21.80
18703;DHT22;9481;48.796;9.210;2023-02-15T15:05:11;24.30;21.90
18703;DHT22;9481;48.796;9.210;2023-02-15T15:07:52;23.70;22.30
18703;DHT22;9481;48.796;9.210;2023-02-15T15:12:50;22.70;22.70
18703;DHT22;9481;48.796;9.210;2023-02-15T15:17:57;22.00;23.40
18703;DHT22;9481;48.796;9.210;2023-02-15T15:20:41;21.70;24.10
18703;DHT22;9481;48.796;9.210;2023-02-15T15:37:38;20.00;26.00
18703;DHT22;9481;48.796;9.210;2023-02-15T15:46:54;19.40;26.40
18703;DHT22;9481;48.796;9.210;2023-02-15T15:49:42;19.20;25.90
18703;DHT22;9481;48.796;9.210;2023-02-15T15:52:16;19.00;25.90
18703;DHT22;9481;48.796;9.210;2023-02-15T15:54:44;18.90;26.70
18703;DHT22;9481;48.796;9.210;2023-02-15T15:57:28;18.80;26.60
18703;DHT22;9481;48.796;9.210;2023-02-15T16:00:00;18.70;27.30
18703;DHT22;9481;48.796;9.210;2023-02-15T16:02:26;18.60;27.40
18703;DHT22;9481;48.796;9.210;2023-02-15T16:04:52;18.40;26.90
18703;DHT22;9481;48.796;9.210;2023-02-15T16:10:01;18.30;27.30
18703;DHT22;9481;48.796;9.210;2023-02-15T16:12:32;18.20;27.80
18703;DHT22;9481;48.796;9.210;2023-02-15T16:15:04;18.20;27.60
18703;DHT22;9481;48.796;9.210;2023-02-15T16:17:47;18.10;27.90
18703;DHT22;9481;48.796;9.210;2023-02-15T16:20:23;18.00;28.50
18703;DHT22;9481;48.796;9.210;2023-02-15T16:23:16;17.90;28.00
18703;DHT22;9481;48.796;9.210;2023-02-15T16:26:32;17.90;28.70
18703;DHT22;9481;48.796;9.210;2023-02-15T16:29:25;17.80;28.90
18703;DHT22;9481;48.796;9.210;2023-02-15T16:35:02;17.60;28.50
18703;DHT22;9481;48.796;9.210;2023-02-15T16:37:34;17.50;28.60
18703;DHT22;9481;48.796;9.210;2023-02-15T16:40:00;17.40;29.00
18703;DHT22;9481;48.796;9.210;2023-02-15T16:42:26;17.30;28.90
18703;DHT22;9481;48.796;9.210;2023-02-15T16:45:02;17.20;29.10
18703;DHT22;9481;48.796;9.210;2023-02-15T16:47:31;17.10;29.60
18703;DHT22;9481;48.796;9.210;2023-02-15T16:50:02;17.00;29.40
18703;DHT22;9481;48.796;9.210;2023-02-15T16:52:29;17.00;29.50
18703;DHT22;9481;48.796;9.210;2023-02-15T16:55:02;16.90;29.70
18703;DHT22;9481;48.796;9.210;2023-02-15T16:57:35;16.80;30.00
18703;DHT22;9481;48.796;9.210;2023-02-15T17:00:06;16.70;30.00
18703;DHT22;9481;48.796;9.210;2023-02-15T17:02:59;16.60;29.90
18703;DHT22;9481;48.796;9.210;2023-02-15T17:05:41;16.50;30.20
18703;DHT22;9481;48.796;9.210;2023-02-15T17:08:18;16.50;30.10
18703;DHT22;9481;48.796;9.210;2023-02-15T17:13:25;16.30;30.30
18703;DHT22;9481;48.796;9.210;2023-02-15T17:18:30;16.20;30.50
18703;DHT22;9481;48.796;9.210;2023-02-15T17:21:20;16.10;30.20
18703;DHT22;9481;48.796;9.210;2023-02-15T17:23:51;16.10;30.30
18703;DHT22;9481;48.796;9.210;2023-02-15T17:26:31;16.00;30.10
18703;DHT22;9481;48.796;9.210;2023-02-15T17:31:47;15.90;30.60
18703;DHT22;9481;48.796;9.210;2023-02-15T17:34:48;15.80;30.40
18703;DHT22;9481;48.796;9.210;2023-02-15T17:39:56;15.70;30.90
18703;DHT22;9481;48.796;9.210;2023-02-15T17:42:23;15.60;30.50
18703;DHT22;9481;48.796;9.210;2023-02-15T17:44:49;15.50;30.50
18703;DHT22;9481;48.796;9.210;2023-02-15T17:47:20;15.50;30.60
18703;DHT22;9481;48.796;9.210;2023-02-15T17:49:49;15.40;30.90
18703;DHT22;9481;48.796;9.210;2023-02-15T17:52:16;15.40;30.80
18703;DHT22;9481;48.796;9.210;2023-02-15T17:54:43;15.30;30.60
18703;DHT22;9481;48.796;9.210;2023-02-15T17:57:29;15.30;30.80
18703;DHT22;9481;48.796;9.210;2023-02-15T17:59:55;15.20;30.80
18703;DHT22;9481;48.796;9.210;2023-02-15T18:02:41;15.20;31.30
18703;DHT22;9481;48.796;9.210;2023-02-15T18:05:26;15.10;30.90
18703;DHT22;9481;48.796;9.210;2023-02-15T18:08:13;15.20;31.20
18703;DHT22;9481;48.796;9.210;2023-02-15T18:10:59;15.10;31.20
18703;DHT22;9481;48.796;9.210;2023-02-15T18:13:44;15.00;31.20
18703;DHT22;9481;48.796;9.210;2023-02-15T18:16:16;15.00;31.30
18703;DHT22;9481;48.796;9.210;2023-02-15T18:18:46;15.00;31.60
18703;DHT22;9481;48.796;9.210;2023-02-15T18:21:12;14.90;31.40
18703;DHT22;9481;48.796;9.210;2023-02-15T18:23:39;14.90;31.40
18703;DHT22;9481;48.796;9.210;2023-02-15T18:26:05;14.90;31.60
18703;DHT22;9481;48.796;9.210;2023-02-15T18:28:31;14.90;31.70
18703;DHT22;9481;48.796;9.210;2023-02-15T18:30:58;14.80;31.60
18703;DHT22;9481;48.796;9.210;2023-02-15T18:33:38;14.80;31.60
18703;DHT22;9481;48.796;9.210;2023-02-15T18:36:16;14.80;31.80
18703;DHT22;9481;48.796;9.210;2023-02-15T18:38:45;14.70;31.90
18703;DHT22;9481;48.796;9.210;2023-02-15T18:41:16;14.70;32.50
18703;DHT22;9481;48.796;9.210;2023-02-15T18:43:44;14.70;32.50
18703;DHT22;9481;48.796;9.210;2023-02-15T18:46:11;14.70;31.80
18703;DHT22;9481;48.796;9.210;2023-02-15T18:48:36;14.60;31.80
18703;DHT22;9481;48.796;9.210;2023-02-15T18:51:02;14.60;31.90
18703;DHT22;9481;48.796;9.210;2023-02-15T18:53:28;14.60;32.00
18703;DHT22;9481;48.796;9.210;2023-02-15T18:55:54;14.60;32.10
18703;DHT22;9481;48.796;9.210;2023-02-15T18:58:21;14.50;32.00
18703;DHT22;9481;48.796;9.210;2023-02-15T19:00:50;14.50;32.20
18703;DHT22;9481;48.796;9.210;2023-02-15T19:03:17;14.50;32.30
18703;DHT22;9481;48.796;9.210;2023-02-15T19:05:44;14.40;32.20
18703;DHT22;9481;48.796;9.210;2023-02-15T19:08:20;14.40;32.20
18703;DHT22;9481;48.796;9.210;2023-02-15T19:10:50;14.40;32.50
18703;DHT22;9481;48.796;9.210;2023-02-15T19:13:16;14.30;32.30
18703;DHT22;9481;48.796;9.210;2023-02-15T19:15:42;14.30;32.40
18703;DHT22;9481;48.796;9.210;2023-02-15T19:18:09;14.30;32.50
18703;DHT22;9481;48.796;9.210;2023-02-15T19:20:45;14.20;32.50
18703;DHT22;9481;48.796;9.210;2023-02-15T19:23:20;14.20;32.90